createdAt,value
2022-12-24T00:03:24.900Z,99.37
2022-12-24T00:13:30.207Z,101.07
2022-12-24T00:23:34.142Z,101.30
2022-12-24T00:33:39.388Z,98.93
2022-12-24T00:43:43.143Z,100.40
2022-12-24T00:53:48.561Z,105.40
2022-12-24T01:03:52.816Z,107.73
2022-12-24T01:13:59.008Z,107.40
2022-12-24T01:24:02.708Z,97.63
2022-12-24T01:34:08.097Z,95.03
2022-12-24T01:44:37.126Z,97.63
2022-12-24T01:54:45.928Z,95.87
2022-12-24T02:04:57.528Z,88.27
2022-12-24T02:15:03.732Z,88.07
2022-12-24T02:25:37.500Z,90.37
2022-12-24T02:35:50.914Z,89.07
2022-12-24T02:46:00.212Z,86.73
2022-12-24T02:56:43.151Z,87.17
2022-12-24T03:06:59.375Z,89.60
2022-12-24T03:17:05.640Z,93.27
2022-12-24T03:27:11.492Z,88.33
2022-12-24T03:37:16.781Z,93.23
2022-12-24T03:47:20.792Z,87.67
2022-12-24T03:57:25.883Z,91.00
2022-12-24T04:07:29.749Z,91.60
2022-12-24T04:17:35.565Z,94.20
2022-12-24T04:27:39.343Z,101.97
2022-12-24T04:37:44.498Z,110.43
2022-12-24T04:47:48.205Z,107.37
2022-12-24T04:57:53.534Z,120.90
2022-12-24T05:07:57.284Z,106.83
2022-12-24T05:18:02.658Z,111.37
2022-12-24T05:28:06.566Z,114.77
2022-12-24T05:38:11.828Z,113.90
2022-12-24T05:48:15.601Z,113.00
2022-12-24T05:58:20.800Z,111.77
2022-12-24T06:08:24.580Z,116.33
2022-12-24T06:18:30.946Z,113.67
2022-12-24T06:28:37.208Z,113.73
2022-12-24T06:38:42.435Z,110.13
2022-12-24T06:48:46.761Z,100.87
2022-12-24T06:58:52.210Z,101.00
2022-12-24T07:08:56.099Z,101.83
2022-12-24T07:19:01.344Z,101.13
2022-12-24T07:29:04.956Z,104.30
2022-12-24T07:39:10.192Z,111.67
2022-12-24T07:49:14.393Z,105.07
2022-12-24T07:59:19.655Z,108.67
2022-12-24T08:09:23.635Z,110.50
2022-12-24T08:19:28.871Z,108.57
2022-12-24T08:29:32.818Z,117.90
2022-12-24T08:39:37.918Z,113.97
2022-12-24T08:49:41.832Z,122.37
2022-12-24T08:59:46.973Z,109.23
2022-12-24T09:09:50.841Z,103.77
2022-12-24T09:19:55.957Z,99.97
2022-12-24T09:29:59.866Z,99.25
2022-12-24T09:40:05.540Z,156.47
2022-12-24T09:50:28.614Z,141.43
2022-12-24T10:00:42.098Z,108.90
2022-12-24T10:10:56.304Z,106.20
2022-12-24T10:21:12.107Z,112.27
2022-12-24T10:31:16.503Z,112.17
2022-12-24T10:41:21.844Z,109.87
2022-12-24T10:51:35.732Z,107.37
2022-12-24T11:01:49.336Z,104.47
2022-12-24T11:11:53.275Z,112.40
2022-12-24T11:22:04.591Z,116.23
2022-12-24T11:32:18.813Z,109.97
2022-12-24T11:42:32.973Z,117.10
2022-12-24T11:52:37.251Z,109.73
2022-12-24T12:02:44.864Z,100.07
2022-12-24T12:12:58.340Z,117.30
2022-12-24T12:23:13.859Z,140.33
2022-12-24T12:33:25.755Z,123.17
2022-12-24T12:44:21.628Z,102.30
2022-12-24T12:54:50.951Z,104.27
2022-12-24T13:05:25.731Z,102.40
2022-12-24T13:16:25.635Z,92.80
2022-12-24T13:26:30.849Z,89.07
2022-12-24T13:37:05.250Z,90.43
2022-12-24T13:47:32.530Z,90.20
2022-12-24T13:57:41.744Z,99.40
2022-12-24T14:07:50.367Z,120.77
2022-12-24T14:17:54.428Z,104.30
2022-12-24T14:28:06.491Z,92.53
2022-12-24T14:38:18.980Z,97.90
2022-12-24T14:48:34.632Z,90.43
2022-12-24T14:58:40.925Z,101.60
2022-12-24T15:08:51.336Z,94.33
2022-12-24T15:18:58.430Z,94.23
2022-12-24T15:29:15.452Z,94.40
2022-12-24T15:39:19.271Z,96.03
2022-12-24T15:49:25.247Z,99.37
2022-12-24T15:59:36.996Z,101.97
2022-12-24T16:09:46.858Z,104.83
2022-12-24T16:19:53.470Z,106.53
2022-12-24T16:29:59.306Z,105.07
2022-12-24T16:40:03.130Z,103.47
2022-12-24T16:50:12.530Z,106.47
2022-12-24T17:00:20.727Z,104.10
2022-12-24T17:10:26.001Z,107.47
2022-12-24T17:20:29.780Z,110.67
2022-12-24T17:30:34.977Z,109.50
2022-12-24T17:40:38.885Z,108.03
2022-12-24T17:50:44.250Z,108.77
2022-12-24T18:00:49.828Z,110.10
2022-12-24T18:10:55.071Z,105.63
2022-12-24T18:20:58.741Z,106.83
2022-12-24T18:31:07.227Z,103.27
2022-12-24T18:41:14.003Z,106.80
2022-12-24T18:51:22.331Z,112.00
2022-12-24T19:01:29.084Z,102.33
2022-12-24T19:11:36.156Z,100.37
2022-12-24T19:21:39.882Z,99.10
2022-12-24T19:31:47.553Z,97.90
2022-12-24T19:41:51.523Z,93.70
2022-12-24T19:51:56.732Z,94.60
2022-12-24T20:02:00.742Z,93.23
2022-12-24T20:12:06.826Z,96.53
2022-12-24T20:22:10.487Z,98.47
2022-12-24T20:32:15.725Z,93.00
2022-12-24T20:42:20.792Z,103.63
2022-12-24T20:52:25.941Z,95.03
2022-12-24T21:02:30.109Z,102.77
2022-12-24T21:12:52.408Z,97.20
2022-12-24T21:23:00.815Z,100.37
2022-12-24T21:33:06.664Z,98.10
2022-12-24T21:43:10.477Z,103.70
2022-12-24T21:53:38.143Z,97.70
2022-12-24T22:03:43.053Z,105.20
2022-12-24T22:13:48.204Z,98.67
2022-12-24T22:23:52.315Z,102.33
2022-12-24T22:33:57.620Z,104.97
2022-12-24T22:44:01.597Z,104.27
2022-12-24T22:54:07.409Z,97.07
2022-12-24T23:04:12.875Z,97.40
2022-12-24T23:14:38.401Z,99.67
2022-12-24T23:24:42.260Z,103.30
2022-12-24T23:34:47.530Z,102.53
2022-12-24T23:44:52.425Z,97.10
2022-12-24T23:54:57.668Z,99.13
